Time;durP1;ratioP1;P1;durP2;ratioP2;P2;SDS_P1;SDS_P2;PMS_P1;PMS_P2;Temp;Humidity;BMP_temperature;BMP_pressure;BME280_temperature;BME280_humidity;BME280_pressure;Samples;Min_cycle;Max_cycle;Signal;HPM_P1;HPM_P2
2023/09/26 00:02:18;;;;;;;4.18;3.80;;;15.50;20.80;;;;;;5135997;27;20047;-88
2023/09/26 00:04:44;;;;;;;6.10;4.43;;;15.50;20.20;;;;;;5134082;27;20050;-88
2023/09/26 00:07:10;;;;;;;5.20;4.30;;;15.50;20.30;;;;;;5136447;27;20179;-88
2023/09/26 00:09:36;;;;;;;5.78;4.28;;;15.50;21.00;;;;;;5132457;28;20054;-88
2023/09/26 00:12:03;;;;;;;4.87;4.37;;;15.50;20.60;;;;;;5099430;28;20058;-87
2023/09/26 00:14:29;;;;;;;5.55;4.40;;;15.50;21.80;;;;;;5084188;27;20143;-88
2023/09/26 00:16:54;;;;;;;5.30;4.53;;;15.50;22.20;;;;;;5097011;28;20078;-88
2023/09/26 00:19:20;;;;;;;4.90;4.45;;;15.40;21.70;;;;;;5115459;27;20798;-88
2023/09/26 00:21:47;;;;;;;5.03;4.15;;;15.50;21.80;;;;;;5102302;27;20046;-87
2023/09/26 00:24:13;;;;;;;;;;;15.50;23.00;;;;;;5101724;27;20044;-88
2023/09/26 00:26:41;;;;;;;6.18;4.38;;;15.40;23.70;;;;;;5116701;28;20281;-87
2023/09/26 00:29:07;;;;;;;5.37;4.00;;;15.40;21.70;;;;;;5131846;27;20043;-88
2023/09/26 00:31:32;;;;;;;5.40;4.37;;;15.40;21.00;;;;;;5121036;28;20368;-88
2023/09/26 00:34:00;;;;;;;4.37;3.97;;;15.50;21.70;;;;;;5099264;28;20047;-88
2023/09/26 00:36:26;;;;;;;4.70;4.30;;;15.50;22.50;;;;;;5109292;28;20043;-88
2023/09/26 00:38:52;;;;;;;4.80;3.90;;;15.50;24.00;;;;;;5118169;27;20389;-88
2023/09/26 00:41:17;;;;;;;5.57;4.43;;;15.40;25.10;;;;;;5122900;27;20683;-88
2023/09/26 00:43:43;;;;;;;5.85;4.60;;;15.50;25.40;;;;;;5118762;27;20446;-88
2023/09/26 00:46:11;;;;;;;4.93;4.27;;;15.40;23.50;;;;;;5119698;27;20043;-88
2023/09/26 00:48:38;;;;;;;6.53;4.78;;;15.40;23.30;;;;;;5122146;27;20289;-88
2023/09/26 00:51:07;;;;;;;5.82;4.65;;;15.40;23.30;;;;;;5139723;27;20087;-88
2023/09/26 00:53:37;;;;;;;5.75;4.70;;;15.40;23.70;;;;;;5111041;27;20110;-88
2023/09/26 00:56:06;;;;;;;5.35;4.85;;;15.50;23.40;;;;;;5121835;27;20043;-88
2023/09/26 00:58:33;;;;;;;6.38;5.65;;;15.40;23.60;;;;;;5119579;27;20047;-88
2023/09/26 01:01:05;;;;;;;6.07;5.47;;;15.40;24.00;;;;;;5126079;27;20060;-87
2023/09/26 01:03:31;;;;;;;6.45;5.05;;;15.30;23.30;;;;;;5109631;27;20034;-88
2023/09/26 01:05:57;;;;;;;;;;;14.40;23.10;;;;;;5121380;27;20050;-88
2023/09/26 01:08:23;;;;;;;6.07;5.47;;;15.20;22.30;;;;;;5114237;27;19919;-88
2023/09/26 01:10:48;;;;;;;8.30;5.97;;;15.10;23.00;;;;;;5139505;27;20041;-88
2023/09/26 01:13:14;;;;;;;6.25;5.45;;;15.20;22.50;;;;;;5133669;27;20044;-88
2023/09/26 01:15:43;;;;;;;7.50;5.63;;;15.20;22.10;;;;;;5093837;27;20049;-88
2023/09/26 01:18:14;;;;;;;6.18;5.57;;;15.10;20.80;;;;;;5103224;27;20345;-88
2023/09/26 01:20:45;;;;;;;7.18;6.13;;;15.20;19.90;;;;;;5105743;27;20039;-88
2023/09/26 01:23:15;;;;;;;7.18;6.47;;;15.10;22.00;;;;;;5103335;27;20047;-88
2023/09/26 01:25:45;;;;;;;6.35;5.63;;;15.10;22.20;;;;;;5116325;27;20039;-88
2023/09/26 01:28:16;;;;;;;6.05;5.20;;;15.20;21.80;;;;;;5119507;27;20039;-87
2023/09/26 01:30:42;;;;;;;7.65;5.75;;;14.40;21.80;;;;;;5103653;27;20075;-88
2023/09/26 01:33:17;;;;;;;6.00;5.50;;;15.00;23.10;;;;;;5120923;27;20073;-88
2023/09/26 01:35:43;;;;;;;7.03;6.32;;;15.00;23.50;;;;;;5138830;27;20304;-88
2023/09/26 01:38:09;;;;;;;8.73;6.57;;;15.00;22.70;;;;;;5138082;27;20047;-88
2023/09/26 01:40:35;;;;;;;6.60;5.93;;;14.90;22.20;;;;;;5138349;27;20046;-88
2023/09/26 01:43:03;;;;;;;6.63;5.90;;;14.90;22.00;;;;;;5124007;27;20133;-88
2023/09/26 01:45:29;;;;;;;7.93;6.28;;;14.90;22.00;;;;;;5138304;27;20103;-88
2023/09/26 01:47:55;;;;;;;7.60;6.90;;;14.90;21.80;;;;;;5121887;27;20133;-88
2023/09/26 01:50:21;;;;;;;9.00;7.40;;;15.00;22.00;;;;;;5122293;27;20038;-87
2023/09/26 01:52:54;;;;;;;7.65;6.80;;;15.00;21.10;;;;;;5141286;27;20491;-88
2023/09/26 01:55:22;;;;;;;7.68;6.93;;;14.90;21.60;;;;;;5119695;27;20054;-87
2023/09/26 01:57:48;;;;;;;8.13;6.97;;;15.00;19.70;;;;;;5117882;27;20043;-88
2023/09/26 02:00:15;;;;;;;10.93;7.70;;;15.00;18.90;;;;;;5107868;27;20492;-87
2023/09/26 02:02:43;;;;;;;7.82;6.93;;;14.90;18.30;;;;;;5135745;27;20078;-88
2023/09/26 02:05:13;;;;;;;7.68;6.78;;;14.90;18.50;;;;;;5133959;27;20039;-88
2023/09/26 02:07:39;;;;;;;8.50;7.80;;;14.90;19.20;;;;;;5134684;27;20222;-87
2023/09/26 02:10:06;;;;;;;8.27;7.45;;;14.90;18.30;;;;;;5103948;27;20134;-87
2023/09/26 02:12:34;;;;;;;9.13;7.38;;;14.90;17.20;;;;;;5113100;27;20047;-88
2023/09/26 02:15:05;;;;;;;9.18;7.30;;;14.90;16.60;;;;;;5084777;27;20101;-88
2023/09/26 02:17:33;;;;;;;9.55;7.70;;;14.90;16.40;;;;;;5126809;27;20050;-88
2023/09/26 02:20:00;;;;;;;11.07;8.43;;;14.90;16.30;;;;;;5120516;27;20433;-88
2023/09/26 02:22:25;;;;;;;10.82;8.60;;;14.20;16.50;;;;;;5112648;27;20117;-88
2023/09/26 02:24:52;;;;;;;9.53;8.63;;;14.90;16.80;;;;;;5103463;27;20077;-88
2023/09/26 02:27:18;;;;;;;14.10;9.85;;;14.90;15.90;;;;;;5093243;27;20046;-88
2023/09/26 02:29:44;;;;;;;10.32;9.43;;;14.80;15.80;;;;;;5121572;27;20503;-88
2023/09/26 02:32:10;;;;;;;10.32;9.38;;;14.80;15.10;;;;;;5099935;27;20047;-88
2023/09/26 02:34:40;;;;;;;11.63;8.57;;;14.80;15.10;;;;;;5104121;27;20039;-88
2023/09/26 02:37:06;;;;;;;10.40;9.07;;;14.80;16.00;;;;;;5106033;27;20043;-87
2023/09/26 02:39:32;;;;;;;10.53;9.53;;;14.80;15.80;;;;;;5115446;27;20098;-88
2023/09/26 02:41:58;;;;;;;15.80;9.97;;;14.80;15.30;;;;;;5100595;27;20289;-88
2023/09/26 02:44:23;;;;;;;11.27;9.33;;;14.80;14.70;;;;;;5111719;27;20049;-88
2023/09/26 02:46:49;;;;;;;10.83;9.10;;;14.70;14.10;;;;;;5105404;27;20051;-88
2023/09/26 02:49:15;;;;;;;11.57;10.17;;;14.70;14.60;;;;;;5126304;27;20285;-88
2023/09/26 02:51:40;;;;;;;12.80;9.67;;;14.70;15.00;;;;;;5116218;27;20042;-88
2023/09/26 02:54:06;;;;;;;14.30;9.90;;;14.70;14.30;;;;;;5099428;27;20070;-88
2023/09/26 02:56:32;;;;;;;11.80;10.17;;;14.60;13.60;;;;;;5088046;28;20039;-88
2023/09/26 02:58:57;;;;;;;11.38;10.27;;;14.60;13.70;;;;;;5119317;27;20038;-87
2023/09/26 03:01:23;;;;;;;11.38;10.18;;;14.70;14.00;;;;;;5077043;27;20043;-88
2023/09/26 03:03:51;;;;;;;11.80;9.87;;;14.70;14.70;;;;;;5099770;27;20103;-88
2023/09/26 03:06:16;;;;;;;10.80;9.75;;;14.60;14.40;;;;;;5112793;27;20288;-88
2023/09/26 03:08:42;;;;;;;9.63;8.63;;;14.60;13.60;;;;;;5104164;27;20527;-88
2023/09/26 03:11:07;;;;;;;9.70;8.47;;;14.50;14.30;;;;;;5121942;27;20046;-88
2023/09/26 03:13:34;;;;;;;10.20;9.30;;;14.50;15.50;;;;;;5102756;27;20047;-88
2023/09/26 03:16:00;;;;;;;11.35;10.10;;;14.50;16.10;;;;;;5126326;27;20080;-88
2023/09/26 03:18:28;;;;;;;10.48;9.38;;;14.40;14.90;;;;;;5107591;28;20055;-87
2023/09/26 03:20:54;;;;;;;12.90;9.95;;;14.30;15.10;;;;;;5119565;27;20051;-87
2023/09/26 03:23:25;;;;;;;9.70;8.80;;;14.30;16.10;;;;;;5129419;27;20061;-88
2023/09/26 03:25:50;;;;;;;11.07;9.50;;;14.30;16.70;;;;;;5109574;27;20126;-87
2023/09/26 03:28:16;;;;;;;10.17;9.27;;;14.20;17.70;;;;;;5110500;28;20074;-87
2023/09/26 03:30:43;;;;;;;13.53;10.53;;;14.20;17.30;;;;;;5085947;28;20071;-88
2023/09/26 03:33:10;;;;;;;10.27;9.27;;;14.20;17.60;;;;;;5116885;27;20125;-89
2023/09/26 03:35:36;;;;;;;10.18;8.73;;;14.10;18.00;;;;;;5122256;27;20077;-88
2023/09/26 03:38:02;;;;;;;10.65;9.55;;;14.10;18.30;;;;;;5102856;27;20043;-88
2023/09/26 03:40:28;;;;;;;11.02;9.77;;;14.10;17.30;;;;;;5120906;27;20538;-88
2023/09/26 03:42:54;;;;;;;10.65;9.65;;;14.00;17.40;;;;;;5139560;27;20388;-88
2023/09/26 03:45:21;;;;;;;9.90;9.00;;;13.70;17.90;;;;;;5117403;28;20036;-88
2023/09/26 03:47:47;;;;;;;10.05;9.05;;;13.90;17.50;;;;;;5122608;28;20409;-88
2023/09/26 03:50:13;;;;;;;10.87;9.13;;;13.80;17.10;;;;;;5085829;28;20051;-87
2023/09/26 03:52:39;;;;;;;11.38;10.15;;;13.80;17.80;;;;;;5102703;28;20292;-87
2023/09/26 03:55:06;;;;;;;11.43;9.77;;;13.70;19.10;;;;;;5099341;28;20054;-88
2023/09/26 03:57:32;;;;;;;10.65;9.65;;;13.70;19.50;;;;;;5102307;27;20043;-88
2023/09/26 03:59:59;;;;;;;11.45;9.68;;;13.60;18.40;;;;;;5117770;27;20036;-88
2023/09/26 04:02:24;;;;;;;10.65;9.40;;;13.60;18.30;;;;;;5088146;27;20047;-87
2023/09/26 04:04:50;;;;;;;11.17;10.10;;;13.50;18.50;;;;;;5116128;28;20046;-87
2023/09/26 04:07:16;;;;;;;11.90;9.57;;;13.50;18.70;;;;;;5124998;27;20062;-88
2023/09/26 04:09:42;;;;;;;12.50;9.98;;;13.40;19.20;;;;;;5102201;27;20047;-88
2023/09/26 04:12:07;;;;;;;10.97;9.87;;;13.40;20.20;;;;;;5116611;28;20460;-87
2023/09/26 04:14:33;;;;;;;10.70;9.60;;;13.40;20.60;;;;;;5100501;27;20054;-87
2023/09/26 04:16:59;;;;;;;11.63;10.43;;;13.30;20.70;;;;;;5105724;27;20039;-87
2023/09/26 04:19:25;;;;;;;11.88;10.68;;;13.30;19.30;;;;;;5109684;27;20055;-87
2023/09/26 04:21:54;;;;;;;11.60;10.27;;;13.30;18.70;;;;;;5100677;28;20054;-87
2023/09/26 04:24:20;;;;;;;10.93;9.93;;;13.20;17.60;;;;;;5085080;28;20054;-87
2023/09/26 04:26:46;;;;;;;12.00;10.93;;;13.20;18.60;;;;;;5117239;28;20047;-87
2023/09/26 04:29:13;;;;;;;10.82;9.82;;;13.20;18.50;;;;;;5135291;27;20362;-87
2023/09/26 04:31:39;;;;;;;12.52;11.05;;;13.10;18.60;;;;;;5102102;27;20051;-88
2023/09/26 04:34:05;;;;;;;11.93;10.70;;;13.10;19.20;;;;;;5111118;28;20108;-88
2023/09/26 04:36:30;;;;;;;11.50;10.40;;;13.10;18.30;;;;;;5065018;27;20478;-87
2023/09/26 04:38:56;;;;;;;11.80;10.50;;;13.00;17.70;;;;;;5085601;28;20047;-87
2023/09/26 04:41:22;;;;;;;11.33;10.30;;;13.00;19.30;;;;;;5095003;28;20102;-87
2023/09/26 04:43:48;;;;;;;12.60;11.27;;;13.00;20.30;;;;;;5116904;28;20039;-87
2023/09/26 04:46:15;;;;;;;12.10;10.65;;;13.00;20.50;;;;;;5099577;28;20044;-87
2023/09/26 04:48:42;;;;;;;12.57;11.27;;;13.00;20.80;;;;;;5127466;27;20068;-88
2023/09/26 04:51:12;;;;;;;12.30;11.00;;;13.00;21.20;;;;;;5117449;27;20058;-87
2023/09/26 04:53:41;;;;;;;13.48;12.05;;;13.00;20.80;;;;;;5105586;27;20485;-88
2023/09/26 04:56:07;;;;;;;13.18;10.98;;;12.90;21.00;;;;;;5127070;27;20043;-88
2023/09/26 04:58:33;;;;;;;11.93;10.70;;;12.90;20.70;;;;;;5124620;27;20047;-88
2023/09/26 05:01:03;;;;;;;13.50;12.30;;;12.90;21.10;;;;;;5102495;28;20100;-88
2023/09/26 05:03:29;;;;;;;11.75;10.50;;;12.90;21.50;;;;;;5113711;27;20047;-88
2023/09/26 05:05:54;;;;;;;13.10;11.75;;;12.90;22.60;;;;;;5116386;28;20051;-88
2023/09/26 05:08:20;;;;;;;14.38;12.93;;;12.80;22.30;;;;;;5107544;28;20457;-88
2023/09/26 05:10:48;;;;;;;12.73;11.43;;;12.80;22.30;;;;;;5101945;27;20044;-88
2023/09/26 05:13:15;;;;;;;13.13;11.82;;;12.80;22.80;;;;;;5104030;27;20057;-88
2023/09/26 05:15:41;;;;;;;13.10;11.27;;;12.80;23.00;;;;;;5136497;27;20039;-87
2023/09/26 05:18:06;;;;;;;12.40;11.20;;;12.80;22.80;;;;;;5105105;27;20078;-88
2023/09/26 05:20:32;;;;;;;11.13;10.10;;;12.80;22.70;;;;;;5114659;27;20070;-88
2023/09/26 05:23:00;;;;;;;13.10;11.77;;;12.70;22.40;;;;;;5112455;27;20035;-87
2023/09/26 05:25:26;;;;;;;11.85;10.63;;;12.70;22.70;;;;;;5068397;28;20062;-88
2023/09/26 05:27:52;;;;;;;12.02;10.85;;;12.70;23.40;;;;;;5128488;27;20050;-87
2023/09/26 05:30:18;;;;;;;11.90;10.70;;;12.70;22.80;;;;;;5100637;27;20044;-88
2023/09/26 05:32:44;;;;;;;12.10;10.97;;;12.70;22.80;;;;;;5118707;27;20040;-87
2023/09/26 05:35:11;;;;;;;13.23;11.98;;;12.70;23.80;;;;;;5130217;27;20050;-87
2023/09/26 05:37:38;;;;;;;12.77;11.63;;;12.70;25.00;;;;;;5136390;27;20050;-87
2023/09/26 05:40:09;;;;;;;13.50;11.85;;;12.60;24.50;;;;;;5117820;27;20039;-87
2023/09/26 05:42:38;;;;;;;12.82;11.60;;;12.60;23.70;;;;;;5119390;27;20058;-81
2023/09/26 05:45:09;;;;;;;14.73;12.70;;;12.50;24.00;;;;;;5120034;27;20047;-85
2023/09/26 05:47:35;;;;;;;14.57;12.55;;;12.50;25.80;;;;;;5134968;27;20043;-83
2023/09/26 05:50:04;;;;;;;13.25;11.95;;;12.60;26.60;;;;;;5134264;27;20124;-84
2023/09/26 05:52:30;;;;;;;17.25;13.35;;;12.60;26.60;;;;;;5136112;27;20100;-83
2023/09/26 05:54:56;;;;;;;14.33;11.60;;;12.60;26.20;;;;;;5099556;27;20047;-86
2023/09/26 05:57:21;;;;;;;14.13;12.57;;;12.60;25.60;;;;;;5100773;27;20395;-86
2023/09/26 05:59:47;;;;;;;13.60;12.30;;;12.60;25.60;;;;;;5101728;27;20042;-84
2023/09/26 06:02:14;;;;;;;13.40;12.13;;;12.50;26.00;;;;;;5135267;27;20043;-85
2023/09/26 06:04:44;;;;;;;12.48;11.35;;;12.50;27.10;;;;;;5113099;28;20043;-84
2023/09/26 06:07:10;;;;;;;13.00;11.38;;;12.60;27.20;;;;;;5114977;27;20114;-84
2023/09/26 06:09:37;;;;;;;13.48;12.13;;;12.70;27.40;;;;;;5108637;27;20130;-84
2023/09/26 06:12:04;;;;;;;12.82;11.45;;;12.70;26.70;;;;;;5120393;27;20043;-84
2023/09/26 06:14:33;;;;;;;11.30;10.20;;;12.70;26.80;;;;;;5107982;27;20050;-83
2023/09/26 06:16:59;;;;;;;12.75;11.50;;;12.70;27.70;;;;;;5112936;28;20418;-82
2023/09/26 06:19:25;;;;;;;12.20;10.97;;;12.80;27.20;;;;;;5096043;28;20076;-83
2023/09/26 06:21:50;;;;;;;11.60;10.43;;;12.90;26.10;;;;;;5117933;27;20073;-84
2023/09/26 06:24:16;;;;;;;12.97;11.00;;;12.90;25.90;;;;;;5130331;27;20082;-82
2023/09/26 06:26:42;;;;;;;12.63;10.77;;;13.00;26.00;;;;;;5123706;27;20047;-83
2023/09/26 06:29:07;;;;;;;13.03;11.47;;;13.00;24.60;;;;;;5112548;28;20047;-83
2023/09/26 06:31:33;;;;;;;13.83;11.43;;;13.10;23.40;;;;;;5096085;28;20039;-82
2023/09/26 06:34:01;;;;;;;13.73;11.07;;;13.20;23.50;;;;;;5112546;28;20112;-82
2023/09/26 06:36:30;;;;;;;13.10;11.70;;;13.20;23.90;;;;;;5113460;28;20131;-83
2023/09/26 06:38:59;;;;;;;13.68;11.80;;;13.30;24.00;;;;;;5132436;27;20051;-85
2023/09/26 06:41:26;;;;;;;12.10;10.85;;;13.30;24.50;;;;;;5133562;27;20465;-82
2023/09/26 06:43:51;;;;;;;;;;;13.40;24.30;;;;;;5120545;27;20043;-82
2023/09/26 06:46:17;;;;;;;12.18;10.98;;;13.40;26.10;;;;;;5112846;27;19937;-83
2023/09/26 06:48:43;;;;;;;12.53;11.33;;;13.40;23.60;;;;;;5134804;27;20463;-83
2023/09/26 06:51:08;;;;;;;10.83;9.70;;;13.40;22.50;;;;;;5133272;27;20062;-83
2023/09/26 06:53:35;;;;;;;14.03;11.20;;;13.50;22.00;;;;;;5133374;27;20381;-84
2023/09/26 06:56:06;;;;;;;11.65;10.25;;;13.50;21.20;;;;;;5132744;27;20130;-85
2023/09/26 06:58:32;;;;;;;13.80;11.27;;;13.60;22.40;;;;;;5116046;27;20054;-83
2023/09/26 07:00:58;;;;;;;17.63;10.75;;;13.60;22.80;;;;;;5115583;27;20562;-85
2023/09/26 07:03:29;;;;;;;12.32;11.02;;;13.70;21.50;;;;;;5133103;27;20051;-86
2023/09/26 07:05:56;;;;;;;13.95;10.75;;;13.80;20.50;;;;;;5116036;27;20126;-84
2023/09/26 07:08:22;;;;;;;11.55;9.50;;;13.90;18.30;;;;;;5095709;28;20063;-84
2023/09/26 07:10:49;;;;;;;13.32;11.35;;;14.00;15.40;;;;;;5099400;27;20035;-83
2023/09/26 07:13:15;;;;;;;13.18;11.77;;;14.20;13.20;;;;;;5131545;27;20051;-83
2023/09/26 07:15:42;;;;;;;11.80;10.50;;;14.30;8.90;;;;;;5129855;27;21612;-84
2023/09/26 07:18:09;;;;;;;12.60;9.50;;;14.40;8.30;;;;;;5094239;28;20062;-83
2023/09/26 07:20:47;;;;;;;10.88;9.80;;;14.70;6.80;;;;;;5094881;28;20050;-82
2023/09/26 07:23:14;;;;;;;10.35;9.40;;;14.90;1.00;;;;;;5094742;28;20046;-82
2023/09/26 07:25:39;;;;;;;13.32;9.63;;;15.10;1.00;;;;;;5095311;28;20048;-82
2023/09/26 07:28:05;;;;;;;10.33;9.30;;;15.30;1.00;;;;;;5111987;28;20052;-82
2023/09/26 07:30:31;;;;;;;9.55;8.65;;;15.40;1.00;;;;;;5112424;28;20036;-82
2023/09/26 07:32:57;;;;;;;12.82;9.35;;;15.50;1.00;;;;;;5095243;28;20107;-82
2023/09/26 07:35:23;;;;;;;10.60;9.53;;;15.50;1.00;;;;;;5111931;28;20423;-82
2023/09/26 07:37:49;;;;;;;10.90;9.60;;;15.50;1.00;;;;;;5112300;28;20281;-82
2023/09/26 07:40:14;;;;;;;10.57;9.38;;;15.50;1.00;;;;;;5094956;28;20047;-82
2023/09/26 07:42:41;;;;;;;10.15;8.27;;;15.50;1.00;;;;;;5078516;28;20556;-82
2023/09/26 07:45:07;;;;;;;9.70;8.70;;;15.70;1.00;;;;;;5094872;28;20048;-82
2023/09/26 07:47:33;;;;;;;9.77;8.85;;;15.80;1.00;;;;;;5095228;28;20079;-83
2023/09/26 07:49:59;;;;;;;9.53;8.53;;;15.80;1.00;;;;;;5099254;28;20140;-82
2023/09/26 07:52:26;;;;;;;9.88;8.32;;;15.90;1.00;;;;;;5098928;28;20290;-82
2023/09/26 07:54:52;;;;;;;10.80;9.70;;;16.00;1.00;;;;;;5082790;28;20083;-82
2023/09/26 07:57:20;;;;;;;9.10;8.23;;;16.20;1.00;;;;;;5098540;28;20409;-82
2023/09/26 07:59:46;;;;;;;12.35;9.13;;;16.40;1.00;;;;;;5116137;28;20040;-83
2023/09/26 08:02:12;;;;;;;9.13;8.23;;;16.50;1.00;;;;;;5098952;28;20393;-83
2023/09/26 08:04:38;;;;;;;10.00;7.97;;;16.60;1.00;;;;;;5099379;28;20039;-82
2023/09/26 08:07:04;;;;;;;9.95;8.02;;;16.60;1.00;;;;;;5115735;28;20048;-82
2023/09/26 08:09:31;;;;;;;12.98;8.85;;;16.70;1.00;;;;;;5115301;28;20050;-83
2023/09/26 08:11:56;;;;;;;10.75;8.55;;;16.70;1.00;;;;;;5115955;28;20051;-82
2023/09/26 08:14:22;;;;;;;9.07;8.10;;;16.70;1.00;;;;;;5115503;28;20088;-82
2023/09/26 08:16:48;;;;;;;9.27;8.27;;;16.60;1.00;;;;;;5115640;28;20610;-82
2023/09/26 08:19:13;;;;;;;15.40;9.40;;;16.60;1.00;;;;;;5097831;28;20054;-83
2023/09/26 08:21:40;;;;;;;10.17;8.80;;;16.60;1.00;;;;;;5098802;28;20277;-82
2023/09/26 08:24:06;;;;;;;9.30;8.25;;;16.60;1.00;;;;;;5098972;28;20132;-83
2023/09/26 08:26:32;;;;;;;;;;;16.50;1.00;;;;;;5115749;28;20366;-82
2023/09/26 08:28:57;;;;;;;11.68;9.05;;;16.40;1.00;;;;;;5115898;28;19945;-82
2023/09/26 08:31:23;;;;;;;9.25;8.20;;;16.40;1.00;;;;;;5115179;28;20047;-82
2023/09/26 08:33:49;;;;;;;15.73;9.00;;;16.40;1.00;;;;;;5115309;28;20042;-82
2023/09/26 08:36:17;;;;;;;9.40;8.35;;;16.40;1.00;;;;;;5098020;28;20533;-83
2023/09/26 08:38:47;;;;;;;9.52;7.55;;;16.50;1.00;;;;;;5115362;28;20043;-83
2023/09/26 08:41:16;;;;;;;9.90;8.20;;;16.50;1.00;;;;;;5098211;28;20039;-85
2023/09/26 08:43:43;;;;;;;9.82;8.13;;;16.50;1.00;;;;;;5115316;28;20047;-82
2023/09/26 08:46:09;;;;;;;9.60;8.27;;;16.60;1.00;;;;;;5081299;28;20046;-82
2023/09/26 08:48:35;;;;;;;10.65;7.55;;;16.60;1.00;;;;;;5097982;28;20086;-82
2023/09/26 08:51:02;;;;;;;11.23;7.78;;;16.60;1.00;;;;;;5098283;28;20047;-82
2023/09/26 08:53:27;;;;;;;;;;;16.70;1.00;;;;;;5098207;28;20044;-83
2023/09/26 08:55:54;;;;;;;9.35;7.57;;;16.70;1.00;;;;;;5081173;28;19949;-82
2023/09/26 08:58:20;;;;;;;;;;;16.80;1.00;;;;;;5098052;28;20044;-83
2023/09/26 09:00:47;;;;;;;9.38;7.38;;;16.80;1.00;;;;;;5114108;28;19998;-83
2023/09/26 09:03:13;;;;;;;10.55;7.95;;;16.80;1.00;;;;;;5114624;28;20084;-82
2023/09/26 09:05:40;;;;;;;9.85;7.85;;;16.80;1.00;;;;;;5097549;28;20130;-82
2023/09/26 09:08:07;;;;;;;9.43;6.90;;;16.90;1.00;;;;;;5114844;28;20047;-82
2023/09/26 09:10:53;;;;;;;9.27;6.90;;;17.00;1.00;;;;;;5097430;28;20039;-83
2023/09/26 09:13:27;;;;;;;8.52;7.65;;;17.10;1.00;;;;;;5114446;28;20039;-83
2023/09/26 09:16:16;;;;;;;9.90;7.38;;;17.10;1.00;;;;;;5097630;28;20050;-82
2023/09/26 09:18:44;;;;;;;9.55;6.57;;;17.20;1.00;;;;;;5114057;28;20393;-82
2023/09/26 09:21:30;;;;;;;10.35;7.13;;;17.20;1.00;;;;;;5114565;28;20054;-82
2023/09/26 09:24:06;;;;;;;9.27;6.57;;;17.30;1.00;;;;;;5097607;28;20048;-82
2023/09/26 09:26:34;;;;;;;8.20;7.30;;;17.40;1.00;;;;;;5097087;28;20138;-83
2023/09/26 09:29:16;;;;;;;7.80;6.88;;;17.60;1.00;;;;;;5097590;28;20052;-82
2023/09/26 09:31:42;;;;;;;15.65;7.57;;;17.90;1.00;;;;;;5096795;28;20439;-82
2023/09/26 09:34:08;;;;;;;11.48;7.07;;;18.00;1.00;;;;;;5114414;28;20134;-83
2023/09/26 09:36:34;;;;;;;9.43;6.72;;;18.20;1.00;;;;;;5114198;28;20048;-83
2023/09/26 09:39:02;;;;;;;7.43;6.72;;;18.30;1.00;;;;;;5098224;28;20058;-83
2023/09/26 09:41:28;;;;;;;9.40;6.85;;;18.50;1.00;;;;;;5114353;28;20047;-83
2023/09/26 09:43:53;;;;;;;8.48;6.00;;;18.60;99.90;;;;;;5082013;28;20048;-83
2023/09/26 09:46:23;;;;;;;8.23;6.28;;;18.60;99.90;;;;;;5114220;28;20043;-83
2023/09/26 09:48:57;;;;;;;6.90;5.93;;;18.80;99.90;;;;;;5114182;28;20435;-82
2023/09/26 09:51:23;;;;;;;8.93;6.07;;;18.90;99.90;;;;;;5114843;28;20486;-86
2023/09/26 09:53:53;;;;;;;9.73;5.43;;;19.10;99.90;;;;;;5114065;28;20045;-83
2023/09/26 09:56:24;;;;;;;6.18;5.50;;;19.20;99.90;;;;;;5096884;28;20048;-83
2023/09/26 09:58:51;;;;;;;6.07;5.43;;;19.30;99.90;;;;;;5114295;28;20043;-83
2023/09/26 10:01:20;;;;;;;7.43;6.65;;;19.40;99.90;;;;;;5096826;28;20101;-83
2023/09/26 10:03:51;;;;;;;7.80;6.88;;;19.60;99.90;;;;;;5079593;28;20051;-83
2023/09/26 10:06:18;;;;;;;8.07;6.55;;;19.70;99.90;;;;;;5096700;28;20044;-83
2023/09/26 10:08:47;;;;;;;10.25;6.85;;;19.70;99.90;;;;;;5079529;28;20058;-83
2023/09/26 10:11:14;;;;;;;9.60;6.70;;;19.70;99.90;;;;;;5113251;28;20073;-83
2023/09/26 10:13:40;;;;;;;8.13;6.53;;;19.70;99.90;;;;;;5096415;28;20402;-83
2023/09/26 10:16:18;;;;;;;6.57;5.85;;;19.60;49.90;;;;;;5096449;28;20043;-83
2023/09/26 10:18:45;;;;;;;7.13;6.25;;;19.50;99.10;;;;;;5112825;28;20501;-83
2023/09/26 10:21:25;;;;;;;6.45;5.80;;;19.40;39.70;;;;;;5096505;28;20130;-83
2023/09/26 10:24:06;;;;;;;7.38;6.00;;;19.40;91.40;;;;;;5096129;28;20482;-83
2023/09/26 10:26:48;;;;;;;10.32;6.13;;;19.40;99.90;;;;;;5112963;28;20055;-82
2023/09/26 10:29:20;;;;;;;9.77;6.10;;;19.40;99.90;;;;;;5113411;28;20393;-82
2023/09/26 10:32:04;;;;;;;8.23;6.15;;;19.40;99.90;;;;;;5095982;28;20054;-82
2023/09/26 10:34:32;;;;;;;8.63;6.45;;;19.50;99.90;;;;;;5113012;28;20089;-85
2023/09/26 10:37:05;;;;;;;9.15;5.80;;;19.60;99.90;;;;;;5113065;28;20096;-83
2023/09/26 10:39:39;;;;;;;6.60;5.55;;;19.60;99.90;;;;;;5079691;28;20044;-83
2023/09/26 10:42:12;;;;;;;6.60;5.90;;;19.70;99.90;;;;;;5096404;28;20059;-82
2023/09/26 10:44:42;;;;;;;8.02;5.63;;;19.70;99.90;;;;;;5095774;28;20548;-83
2023/09/26 10:47:09;;;;;;;6.95;6.22;;;19.70;99.90;;;;;;5113251;28;20096;-82
2023/09/26 10:49:34;;;;;;;7.20;5.88;;;19.70;82.50;;;;;;5078877;28;20059;-82
2023/09/26 10:52:01;;;;;;;7.65;6.35;;;19.70;1.00;;;;;;5079168;28;20051;-83
2023/09/26 10:54:30;;;;;;;;;;;19.70;1.00;;;;;;5096428;28;20086;-83
2023/09/26 10:56:59;;;;;;;7.07;5.82;;;19.60;1.00;;;;;;5112298;28;20019;-83
2023/09/26 10:59:29;;;;;;;6.00;5.50;;;19.60;46.70;;;;;;5114052;28;20409;-83
2023/09/26 11:01:59;;;;;;;5.50;5.00;;;19.60;99.90;;;;;;5095525;28;20108;-83
2023/09/26 11:04:32;;;;;;;6.68;6.07;;;19.20;42.70;;;;;;5112721;28;20067;-82
2023/09/26 11:07:00;;;;;;;6.70;5.55;;;19.60;80.00;;;;;;5095686;28;20390;-83
2023/09/26 11:09:27;;;;;;;6.85;5.60;;;19.60;99.90;;;;;;5095741;28;20408;-83
2023/09/26 11:11:55;;;;;;;6.20;5.68;;;19.70;87.30;;;;;;5081763;28;20054;-84
2023/09/26 11:14:22;;;;;;;6.85;5.53;;;19.80;99.90;;;;;;5095631;28;20478;-83
2023/09/26 11:16:49;;;;;;;6.50;5.72;;;19.80;99.90;;;;;;5095236;28;20132;-84
2023/09/26 11:19:14;;;;;;;7.32;6.10;;;19.80;99.90;;;;;;5095019;28;20611;-84
2023/09/26 11:21:40;;;;;;;9.35;6.30;;;19.80;92.30;;;;;;5112152;28;20084;-84
2023/09/26 11:24:27;;;;;;;7.63;5.97;;;19.70;93.80;;;;;;5095529;28;20131;-84
2023/09/26 11:26:56;;;;;;;8.87;7.27;;;19.70;33.40;;;;;;5112290;28;20047;-84
2023/09/26 11:29:24;;;;;;;8.50;6.45;;;19.60;99.90;;;;;;5112446;28;20039;-84
2023/09/26 11:31:52;;;;;;;6.40;5.72;;;19.60;99.90;;;;;;5095307;28;20126;-83
2023/09/26 11:34:19;;;;;;;7.35;6.40;;;19.50;99.90;;;;;;5112180;28;20044;-83
2023/09/26 11:36:47;;;;;;;8.95;6.75;;;19.50;99.90;;;;;;5111787;28;20048;-84
2023/09/26 11:39:23;;;;;;;7.53;6.22;;;19.60;99.90;;;;;;5112396;28;20054;-84
2023/09/26 11:42:06;;;;;;;7.80;7.05;;;19.60;99.90;;;;;;5078407;28;20090;-84
2023/09/26 11:44:31;;;;;;;8.18;6.25;;;19.60;99.90;;;;;;5095310;28;20481;-84
2023/09/26 11:46:58;;;;;;;7.43;5.57;;;19.60;99.90;;;;;;5078232;28;20062;-83
2023/09/26 11:49:24;;;;;;;8.35;6.53;;;19.70;99.90;;;;;;5112415;28;20443;-84
2023/09/26 11:51:51;;;;;;;;;;;19.80;99.90;;;;;;5112160;28;20052;-84
2023/09/26 11:54:17;;;;;;;9.27;6.22;;;19.80;99.90;;;;;;5095263;28;19920;-84
2023/09/26 11:56:44;;;;;;;5.85;5.20;;;19.80;99.90;;;;;;5094764;28;20139;-85
2023/09/26 11:59:11;;;;;;;7.28;5.00;;;19.90;99.90;;;;;;5095603;28;20048;-84
2023/09/26 12:01:36;;;;;;;;;;;19.90;99.90;;;;;;5112828;28;20054;-84
2023/09/26 12:04:05;;;;;;;5.85;5.03;;;20.00;99.90;;;;;;5111467;28;19923;-84
2023/09/26 12:06:32;;;;;;;5.78;5.25;;;20.00;99.90;;;;;;5112063;28;20512;-84
2023/09/26 12:08:58;;;;;;;6.00;5.40;;;20.10;99.90;;;;;;5077901;28;20051;-84
2023/09/26 12:11:24;;;;;;;6.22;5.63;;;20.10;99.90;;;;;;5112065;28;20096;-84
2023/09/26 12:13:49;;;;;;;;;;;20.10;99.90;;;;;;5111812;28;20520;-84
2023/09/26 12:16:15;;;;;;;9.73;5.75;;;20.20;99.90;;;;;;5111886;28;19920;-84
2023/09/26 12:18:41;;;;;;;6.25;5.65;;;20.30;99.90;;;;;;5111693;28;20552;-84
2023/09/26 12:21:07;;;;;;;5.47;4.97;;;20.40;99.90;;;;;;5094724;28;20039;-83
2023/09/26 12:23:32;;;;;;;5.47;4.95;;;20.40;99.90;;;;;;5112119;28;20078;-84
2023/09/26 12:25:59;;;;;;;8.05;5.60;;;20.50;99.90;;;;;;5077497;28;20477;-84
2023/09/26 12:28:25;;;;;;;5.65;4.72;;;20.50;99.90;;;;;;5077346;28;20044;-84
2023/09/26 12:30:52;;;;;;;6.57;5.53;;;20.50;99.90;;;;;;5111505;28;20060;-84
2023/09/26 12:33:18;;;;;;;6.43;5.45;;;20.60;99.90;;;;;;5111926;28;20083;-84
2023/09/26 12:35:44;;;;;;;5.93;4.90;;;20.50;99.90;;;;;;5113671;28;20087;-82
2023/09/26 12:38:10;;;;;;;;;;;20.50;99.90;;;;;;5082357;28;20055;-83
2023/09/26 12:40:35;;;;;;;6.93;5.53;;;20.60;99.90;;;;;;5115653;28;20296;-84
2023/09/26 12:43:02;;;;;;;8.57;7.30;;;20.60;99.90;;;;;;5098031;28;20039;-84
2023/09/26 12:45:28;;;;;;;9.25;5.93;;;20.60;99.90;;;;;;5081643;28;20383;-84
2023/09/26 12:47:54;;;;;;;6.55;5.95;;;20.70;99.90;;;;;;5098230;28;20085;-85